sensor_id;sensor_type;location;lat;lon;timestamp;temperature;humidity
69382;DHT22;56560;50.692;12.844;2022-10-31T00:01:27;9.00;85.10
69382;DHT22;56560;50.692;12.844;2022-10-31T00:03:54;8.90;85.40
69382;DHT22;56560;50.692;12.844;2022-10-31T00:06:20;8.90;85.40
69382;DHT22;56560;50.692;12.844;2022-10-31T00:08:47;8.90;84.90
69382;DHT22;56560;50.692;12.844;2022-10-31T00:11:13;8.80;85.70
69382;DHT22;56560;50.692;12.844;2022-10-31T00:13:39;8.70;85.80
69382;DHT22;56560;50.692;12.844;2022-10-31T00:16:05;8.70;85.90
69382;DHT22;56560;50.692;12.844;2022-10-31T00:18:31;8.60;86.40
69382;DHT22;56560;50.692;12.844;2022-10-31T00:21:03;8.60;86.40
69382;DHT22;56560;50.692;12.844;2022-10-31T00:23:29;8.60;86.30
69382;DHT22;56560;50.692;12.844;2022-10-31T00:26:03;8.60;86.70
69382;DHT22;56560;50.692;12.844;2022-10-31T00:28:29;8.60;87.30
69382;DHT22;56560;50.692;12.844;2022-10-31T00:31:01;8.60;86.90
69382;DHT22;56560;50.692;12.844;2022-10-31T00:33:28;8.60;86.50
69382;DHT22;56560;50.692;12.844;2022-10-31T00:35:54;8.50;86.60
69382;DHT22;56560;50.692;12.844;2022-10-31T00:38:20;8.50;86.60
69382;DHT22;56560;50.692;12.844;2022-10-31T00:40:45;8.60;86.70
69382;DHT22;56560;50.692;12.844;2022-10-31T00:43:11;8.60;87.40
69382;DHT22;56560;50.692;12.844;2022-10-31T00:45:37;8.60;87.80
69382;DHT22;56560;50.692;12.844;2022-10-31T00:48:02;8.60;86.50
69382;DHT22;56560;50.692;12.844;2022-10-31T00:50:28;8.60;85.70
69382;DHT22;56560;50.692;12.844;2022-10-31T00:52:53;8.60;87.40
69382;DHT22;56560;50.692;12.844;2022-10-31T00:55:19;8.60;86.30
69382;DHT22;56560;50.692;12.844;2022-10-31T00:57:48;8.60;86.60
69382;DHT22;56560;50.692;12.844;2022-10-31T01:00:14;8.70;86.00
69382;DHT22;56560;50.692;12.844;2022-10-31T01:02:40;8.70;85.80
69382;DHT22;56560;50.692;12.844;2022-10-31T01:05:06;8.70;85.50
69382;DHT22;56560;50.692;12.844;2022-10-31T01:07:38;8.70;85.50
69382;DHT22;56560;50.692;12.844;2022-10-31T01:10:04;8.80;85.70
69382;DHT22;56560;50.692;12.844;2022-10-31T01:12:42;8.80;84.80
69382;DHT22;56560;50.692;12.844;2022-10-31T01:15:09;8.70;86.30
69382;DHT22;56560;50.692;12.844;2022-10-31T01:17:35;8.80;85.50
69382;DHT22;56560;50.692;12.844;2022-10-31T01:20:01;8.70;85.60
69382;DHT22;56560;50.692;12.844;2022-10-31T01:22:27;8.60;86.00
69382;DHT22;56560;50.692;12.844;2022-10-31T01:24:52;8.60;85.90
69382;DHT22;56560;50.692;12.844;2022-10-31T01:27:18;8.60;87.10
69382;DHT22;56560;50.692;12.844;2022-10-31T01:29:44;8.60;86.30
69382;DHT22;56560;50.692;12.844;2022-10-31T01:32:09;8.50;86.50
69382;DHT22;56560;50.692;12.844;2022-10-31T01:34:35;8.50;86.90
69382;DHT22;56560;50.692;12.844;2022-10-31T01:37:00;8.50;85.80
69382;DHT22;56560;50.692;12.844;2022-10-31T01:39:26;8.50;86.10
69382;DHT22;56560;50.692;12.844;2022-10-31T01:41:53;8.40;86.50
69382;DHT22;56560;50.692;12.844;2022-10-31T01:49:32;8.20;87.10
69382;DHT22;56560;50.692;12.844;2022-10-31T01:52:09;8.20;87.40
69382;DHT22;56560;50.692;12.844;2022-10-31T01:54:41;8.20;87.80
69382;DHT22;56560;50.692;12.844;2022-10-31T01:57:12;8.20;87.40
69382;DHT22;56560;50.692;12.844;2022-10-31T01:59:42;8.10;88.10
69382;DHT22;56560;50.692;12.844;2022-10-31T02:02:10;8.20;87.70
69382;DHT22;56560;50.692;12.844;2022-10-31T02:04:37;8.20;87.70
69382;DHT22;56560;50.692;12.844;2022-10-31T02:07:20;8.10;87.70
69382;DHT22;56560;50.692;12.844;2022-10-31T02:09:48;8.10;87.70
69382;DHT22;56560;50.692;12.844;2022-10-31T02:12:15;8.10;88.30
69382;DHT22;56560;50.692;12.844;2022-10-31T02:14:41;8.10;88.90
69382;DHT22;56560;50.692;12.844;2022-10-31T02:17:07;8.10;88.40
69382;DHT22;56560;50.692;12.844;2022-10-31T02:22:10;8.00;88.30
69382;DHT22;56560;50.692;12.844;2022-10-31T02:30:17;7.90;89.10
69382;DHT22;56560;50.692;12.844;2022-10-31T02:44:36;8.00;88.30
69382;DHT22;56560;50.692;12.844;2022-10-31T02:50:23;7.90;89.40
69382;DHT22;56560;50.692;12.844;2022-10-31T02:52:21;8.00;89.30
69382;DHT22;56560;50.692;12.844;2022-10-31T02:54:48;7.90;88.50
69382;DHT22;56560;50.692;12.844;2022-10-31T02:57:17;7.90;88.70
69382;DHT22;56560;50.692;12.844;2022-10-31T02:59:53;7.90;88.60
69382;DHT22;56560;50.692;12.844;2022-10-31T03:08:30;8.00;87.80
69382;DHT22;56560;50.692;12.844;2022-10-31T03:11:02;8.00;87.90
69382;DHT22;56560;50.692;12.844;2022-10-31T03:13:37;7.90;88.00
69382;DHT22;56560;50.692;12.844;2022-10-31T03:16:07;7.90;89.10
69382;DHT22;56560;50.692;12.844;2022-10-31T03:24:01;8.00;88.40
69382;DHT22;56560;50.692;12.844;2022-10-31T03:26:27;7.90;88.70
69382;DHT22;56560;50.692;12.844;2022-10-31T03:29:04;7.90;88.40
69382;DHT22;56560;50.692;12.844;2022-10-31T03:31:36;7.90;88.30
69382;DHT22;56560;50.692;12.844;2022-10-31T03:34:04;7.90;89.10
69382;DHT22;56560;50.692;12.844;2022-10-31T03:36:33;7.90;88.60
69382;DHT22;56560;50.692;12.844;2022-10-31T03:39:02;7.80;88.80
69382;DHT22;56560;50.692;12.844;2022-10-31T03:41:41;7.80;88.60
69382;DHT22;56560;50.692;12.844;2022-10-31T03:44:11;7.70;88.70
69382;DHT22;56560;50.692;12.844;2022-10-31T03:46:38;7.60;89.10
69382;DHT22;56560;50.692;12.844;2022-10-31T03:49:04;7.60;89.20
69382;DHT22;56560;50.692;12.844;2022-10-31T03:57:07;7.50;89.70
69382;DHT22;56560;50.692;12.844;2022-10-31T03:59:42;7.50;90.20
69382;DHT22;56560;50.692;12.844;2022-10-31T04:02:13;7.50;90.50
69382;DHT22;56560;50.692;12.844;2022-10-31T04:04:40;7.50;90.30
69382;DHT22;56560;50.692;12.844;2022-10-31T04:07:08;7.40;90.00
69382;DHT22;56560;50.692;12.844;2022-10-31T04:09:37;7.50;91.20
69382;DHT22;56560;50.692;12.844;2022-10-31T04:12:05;7.40;89.90
69382;DHT22;56560;50.692;12.844;2022-10-31T04:14:36;7.40;89.90
69382;DHT22;56560;50.692;12.844;2022-10-31T04:17:06;7.40;89.60
69382;DHT22;56560;50.692;12.844;2022-10-31T04:19:33;7.30;89.70
69382;DHT22;56560;50.692;12.844;2022-10-31T04:21:59;7.20;90.20
69382;DHT22;56560;50.692;12.844;2022-10-31T04:24:25;7.20;90.70
69382;DHT22;56560;50.692;12.844;2022-10-31T04:26:51;7.20;90.40
69382;DHT22;56560;50.692;12.844;2022-10-31T04:29:16;7.20;90.20
69382;DHT22;56560;50.692;12.844;2022-10-31T04:31:42;7.20;90.60
69382;DHT22;56560;50.692;12.844;2022-10-31T04:34:08;7.20;90.40
69382;DHT22;56560;50.692;12.844;2022-10-31T04:36:33;7.20;91.00
69382;DHT22;56560;50.692;12.844;2022-10-31T04:38:59;7.20;90.90
69382;DHT22;56560;50.692;12.844;2022-10-31T04:41:24;7.20;90.50
69382;DHT22;56560;50.692;12.844;2022-10-31T04:43:50;7.20;90.50
69382;DHT22;56560;50.692;12.844;2022-10-31T04:46:17;7.20;91.20
69382;DHT22;56560;50.692;12.844;2022-10-31T04:48:42;7.20;91.30
69382;DHT22;56560;50.692;12.844;2022-10-31T04:51:08;7.30;91.00
69382;DHT22;56560;50.692;12.844;2022-10-31T04:53:34;7.20;89.90
69382;DHT22;56560;50.692;12.844;2022-10-31T04:55:59;7.10;90.00
69382;DHT22;56560;50.692;12.844;2022-10-31T04:58:26;7.10;90.70
69382;DHT22;56560;50.692;12.844;2022-10-31T05:00:53;7.10;91.00
69382;DHT22;56560;50.692;12.844;2022-10-31T05:03:19;7.10;90.70
69382;DHT22;56560;50.692;12.844;2022-10-31T05:05:44;7.00;91.30
69382;DHT22;56560;50.692;12.844;2022-10-31T05:08:10;7.00;91.10
69382;DHT22;56560;50.692;12.844;2022-10-31T05:10:36;7.00;91.40
69382;DHT22;56560;50.692;12.844;2022-10-31T05:13:02;7.00;91.60
69382;DHT22;56560;50.692;12.844;2022-10-31T05:15:28;7.00;91.00
69382;DHT22;56560;50.692;12.844;2022-10-31T05:17:54;7.00;90.80
69382;DHT22;56560;50.692;12.844;2022-10-31T05:20:22;7.00;91.70
69382;DHT22;56560;50.692;12.844;2022-10-31T05:22:52;7.00;91.10
69382;DHT22;56560;50.692;12.844;2022-10-31T05:25:21;7.00;91.30
69382;DHT22;56560;50.692;12.844;2022-10-31T05:27:48;7.00;90.20
69382;DHT22;56560;50.692;12.844;2022-10-31T05:30:18;7.10;90.60
69382;DHT22;56560;50.692;12.844;2022-10-31T05:32:47;7.10;90.90
69382;DHT22;56560;50.692;12.844;2022-10-31T05:35:15;7.10;90.60
69382;DHT22;56560;50.692;12.844;2022-10-31T05:37:41;7.10;90.80
69382;DHT22;56560;50.692;12.844;2022-10-31T05:40:09;7.10;90.90
69382;DHT22;56560;50.692;12.844;2022-10-31T05:42:35;7.20;90.40
69382;DHT22;56560;50.692;12.844;2022-10-31T05:45:01;7.20;90.80
69382;DHT22;56560;50.692;12.844;2022-10-31T05:47:27;7.10;90.00
69382;DHT22;56560;50.692;12.844;2022-10-31T05:49:54;7.10;90.10
69382;DHT22;56560;50.692;12.844;2022-10-31T05:52:20;7.10;90.50
69382;DHT22;56560;50.692;12.844;2022-10-31T05:54:46;7.10;91.20
69382;DHT22;56560;50.692;12.844;2022-10-31T05:57:11;7.10;91.10
69382;DHT22;56560;50.692;12.844;2022-10-31T05:59:37;7.10;91.20
69382;DHT22;56560;50.692;12.844;2022-10-31T06:02:03;7.10;90.60
69382;DHT22;56560;50.692;12.844;2022-10-31T06:04:28;7.10;90.50
69382;DHT22;56560;50.692;12.844;2022-10-31T06:06:54;7.10;90.40
69382;DHT22;56560;50.692;12.844;2022-10-31T06:09:19;7.10;90.00
69382;DHT22;56560;50.692;12.844;2022-10-31T06:11:45;7.00;90.90
69382;DHT22;56560;50.692;12.844;2022-10-31T06:14:11;7.00;90.50
69382;DHT22;56560;50.692;12.844;2022-10-31T06:16:38;7.00;90.20
69382;DHT22;56560;50.692;12.844;2022-10-31T06:19:04;7.00;91.40
69382;DHT22;56560;50.692;12.844;2022-10-31T06:21:30;7.00;90.90
69382;DHT22;56560;50.692;12.844;2022-10-31T06:23:55;7.10;90.50
69382;DHT22;56560;50.692;12.844;2022-10-31T06:26:21;7.10;90.40
69382;DHT22;56560;50.692;12.844;2022-10-31T06:28:47;7.10;90.70
69382;DHT22;56560;50.692;12.844;2022-10-31T06:31:12;7.10;91.00
69382;DHT22;56560;50.692;12.844;2022-10-31T06:33:41;7.10;90.90
69382;DHT22;56560;50.692;12.844;2022-10-31T06:36:07;7.10;90.40
69382;DHT22;56560;50.692;12.844;2022-10-31T06:38:32;7.10;91.10
69382;DHT22;56560;50.692;12.844;2022-10-31T06:41:02;7.20;91.10
69382;DHT22;56560;50.692;12.844;2022-10-31T06:43:28;7.20;91.10
69382;DHT22;56560;50.692;12.844;2022-10-31T06:45:53;7.20;89.80
69382;DHT22;56560;50.692;12.844;2022-10-31T06:48:19;7.20;90.90
69382;DHT22;56560;50.692;12.844;2022-10-31T06:50:45;7.30;90.40
69382;DHT22;56560;50.692;12.844;2022-10-31T06:53:10;7.30;89.40
69382;DHT22;56560;50.692;12.844;2022-10-31T06:55:36;7.40;90.20
69382;DHT22;56560;50.692;12.844;2022-10-31T06:58:02;7.50;90.20
69382;DHT22;56560;50.692;12.844;2022-10-31T07:00:29;7.60;89.80
69382;DHT22;56560;50.692;12.844;2022-10-31T07:03:00;7.70;89.50
69382;DHT22;56560;50.692;12.844;2022-10-31T07:05:27;7.80;89.00
69382;DHT22;56560;50.692;12.844;2022-10-31T07:08:00;7.80;88.10
69382;DHT22;56560;50.692;12.844;2022-10-31T07:10:28;7.80;88.10
69382;DHT22;56560;50.692;12.844;2022-10-31T07:12:59;7.80;88.30
69382;DHT22;56560;50.692;12.844;2022-10-31T07:15:26;7.70;88.40
69382;DHT22;56560;50.692;12.844;2022-10-31T07:17:52;7.60;88.70
69382;DHT22;56560;50.692;12.844;2022-10-31T07:20:18;7.70;90.20
69382;DHT22;56560;50.692;12.844;2022-10-31T07:22:44;7.80;89.70
69382;DHT22;56560;50.692;12.844;2022-10-31T07:25:10;8.00;88.30
69382;DHT22;56560;50.692;12.844;2022-10-31T07:27:40;8.20;88.10
69382;DHT22;56560;50.692;12.844;2022-10-31T07:30:08;8.40;87.70
69382;DHT22;56560;50.692;12.844;2022-10-31T07:32:41;8.60;86.50
69382;DHT22;56560;50.692;12.844;2022-10-31T07:35:09;8.70;85.20
69382;DHT22;56560;50.692;12.844;2022-10-31T07:37:35;8.70;85.70
69382;DHT22;56560;50.692;12.844;2022-10-31T07:40:03;8.80;85.40
69382;DHT22;56560;50.692;12.844;2022-10-31T07:42:29;8.90;85.40
69382;DHT22;56560;50.692;12.844;2022-10-31T07:44:55;9.00;85.20
69382;DHT22;56560;50.692;12.844;2022-10-31T07:47:20;9.10;85.80
69382;DHT22;56560;50.692;12.844;2022-10-31T07:49:46;9.20;85.50
69382;DHT22;56560;50.692;12.844;2022-10-31T07:52:11;9.40;85.00
69382;DHT22;56560;50.692;12.844;2022-10-31T07:54:37;9.50;84.90
69382;DHT22;56560;50.692;12.844;2022-10-31T07:57:03;9.70;85.00
69382;DHT22;56560;50.692;12.844;2022-10-31T07:59:28;10.00;83.80
69382;DHT22;56560;50.692;12.844;2022-10-31T08:01:54;10.20;83.40
69382;DHT22;56560;50.692;12.844;2022-10-31T08:04:20;10.30;83.00
69382;DHT22;56560;50.692;12.844;2022-10-31T08:06:45;10.50;82.40
69382;DHT22;56560;50.692;12.844;2022-10-31T08:09:13;10.60;82.20
69382;DHT22;56560;50.692;12.844;2022-10-31T08:11:39;10.80;81.90
69382;DHT22;56560;50.692;12.844;2022-10-31T08:14:05;11.00;81.40
69382;DHT22;56560;50.692;12.844;2022-10-31T08:16:30;11.10;81.30
69382;DHT22;56560;50.692;12.844;2022-10-31T08:18:56;11.30;80.80
69382;DHT22;56560;50.692;12.844;2022-10-31T08:21:22;11.50;80.30
69382;DHT22;56560;50.692;12.844;2022-10-31T08:23:47;11.70;79.80
69382;DHT22;56560;50.692;12.844;2022-10-31T08:26:13;11.80;79.80
69382;DHT22;56560;50.692;12.844;2022-10-31T08:28:39;11.90;79.50
69382;DHT22;56560;50.692;12.844;2022-10-31T08:31:05;12.10;79.10
69382;DHT22;56560;50.692;12.844;2022-10-31T08:33:31;12.30;78.80
69382;DHT22;56560;50.692;12.844;2022-10-31T08:36:00;12.50;78.50
69382;DHT22;56560;50.692;12.844;2022-10-31T08:38:25;12.70;77.80
69382;DHT22;56560;50.692;12.844;2022-10-31T08:40:51;12.90;77.10
69382;DHT22;56560;50.692;12.844;2022-10-31T08:43:17;13.10;76.90
69382;DHT22;56560;50.692;12.844;2022-10-31T08:45:46;13.20;76.80
69382;DHT22;56560;50.692;12.844;2022-10-31T08:48:13;13.40;76.20
69382;DHT22;56560;50.692;12.844;2022-10-31T08:50:40;13.60;75.40
69382;DHT22;56560;50.692;12.844;2022-10-31T08:55:37;13.90;75.30
69382;DHT22;56560;50.692;12.844;2022-10-31T08:58:04;14.10;75.30
69382;DHT22;56560;50.692;12.844;2022-10-31T09:00:31;14.40;74.70
69382;DHT22;56560;50.692;12.844;2022-10-31T09:02:58;14.60;73.50
69382;DHT22;56560;50.692;12.844;2022-10-31T09:05:24;14.70;73.30
69382;DHT22;56560;50.692;12.844;2022-10-31T09:07:51;14.90;73.40
69382;DHT22;56560;50.692;12.844;2022-10-31T09:10:16;15.10;73.00
69382;DHT22;56560;50.692;12.844;2022-10-31T09:12:42;15.30;72.60
69382;DHT22;56560;50.692;12.844;2022-10-31T09:15:08;15.50;72.20
69382;DHT22;56560;50.692;12.844;2022-10-31T09:17:33;15.60;71.70
69382;DHT22;56560;50.692;12.844;2022-10-31T09:19:59;15.80;70.90
69382;DHT22;56560;50.692;12.844;2022-10-31T09:22:25;16.00;70.90
69382;DHT22;56560;50.692;12.844;2022-10-31T09:24:50;16.10;70.60
69382;DHT22;56560;50.692;12.844;2022-10-31T09:27:16;16.30;69.40
69382;DHT22;56560;50.692;12.844;2022-10-31T09:29:41;16.40;67.60
69382;DHT22;56560;50.692;12.844;2022-10-31T09:32:07;16.50;67.60
69382;DHT22;56560;50.692;12.844;2022-10-31T09:34:33;16.60;66.30
69382;DHT22;56560;50.692;12.844;2022-10-31T09:36:58;16.70;65.80
69382;DHT22;56560;50.692;12.844;2022-10-31T09:39:24;16.90;65.90
69382;DHT22;56560;50.692;12.844;2022-10-31T09:44:51;17.00;63.80
69382;DHT22;56560;50.692;12.844;2022-10-31T09:52:33;17.40;62.60
69382;DHT22;56560;50.692;12.844;2022-10-31T09:55:05;17.40;62.50
69382;DHT22;56560;50.692;12.844;2022-10-31T09:57:36;17.50;61.30
69382;DHT22;56560;50.692;12.844;2022-10-31T10:00:06;17.50;61.70
69382;DHT22;56560;50.692;12.844;2022-10-31T10:02:37;17.60;61.30
69382;DHT22;56560;50.692;12.844;2022-10-31T10:05:05;17.60;61.10
69382;DHT22;56560;50.692;12.844;2022-10-31T10:16:20;17.80;60.50
69382;DHT22;56560;50.692;12.844;2022-10-31T10:18:29;17.90;61.20
69382;DHT22;56560;50.692;12.844;2022-10-31T10:26:36;18.20;60.40
69382;DHT22;56560;50.692;12.844;2022-10-31T10:31:41;18.50;60.00
69382;DHT22;56560;50.692;12.844;2022-10-31T10:34:36;18.70;59.40
69382;DHT22;56560;50.692;12.844;2022-10-31T10:37:08;18.70;59.40
69382;DHT22;56560;50.692;12.844;2022-10-31T10:39:36;18.80;59.20
69382;DHT22;56560;50.692;12.844;2022-10-31T10:42:14;18.90;59.40
69382;DHT22;56560;50.692;12.844;2022-10-31T10:45:00;19.00;59.30
69382;DHT22;56560;50.692;12.844;2022-10-31T10:47:56;19.00;59.50
69382;DHT22;56560;50.692;12.844;2022-10-31T10:50:30;19.20;59.20
69382;DHT22;56560;50.692;12.844;2022-10-31T10:55:33;19.60;58.10
69382;DHT22;56560;50.692;12.844;2022-10-31T10:58:07;19.70;57.80
69382;DHT22;56560;50.692;12.844;2022-10-31T11:00:44;19.70;57.40
69382;DHT22;56560;50.692;12.844;2022-10-31T11:03:12;19.60;57.40
69382;DHT22;56560;50.692;12.844;2022-10-31T11:05:55;19.70;57.50
69382;DHT22;56560;50.692;12.844;2022-10-31T11:08:35;19.80;56.90
69382;DHT22;56560;50.692;12.844;2022-10-31T11:11:17;19.90;56.30
69382;DHT22;56560;50.692;12.844;2022-10-31T11:13:48;20.00;55.90
69382;DHT22;56560;50.692;12.844;2022-10-31T11:16:37;20.10;55.50
69382;DHT22;56560;50.692;12.844;2022-10-31T11:21:37;20.50;55.00
69382;DHT22;56560;50.692;12.844;2022-10-31T11:26:36;21.70;52.60
69382;DHT22;56560;50.692;12.844;2022-10-31T11:29:04;22.40;51.90
69382;DHT22;56560;50.692;12.844;2022-10-31T11:31:32;23.30;50.50
69382;DHT22;56560;50.692;12.844;2022-10-31T11:34:04;24.00;49.00
69382;DHT22;56560;50.692;12.844;2022-10-31T11:36:38;24.60;47.00
69382;DHT22;56560;50.692;12.844;2022-10-31T11:39:05;25.10;45.00
69382;DHT22;56560;50.692;12.844;2022-10-31T11:41:39;25.30;44.20
69382;DHT22;56560;50.692;12.844;2022-10-31T11:44:17;25.20;44.80
69382;DHT22;56560;50.692;12.844;2022-10-31T11:46:53;25.40;44.10
69382;DHT22;56560;50.692;12.844;2022-10-31T11:51:58;26.00;42.50
69382;DHT22;56560;50.692;12.844;2022-10-31T11:54:28;25.90;42.40
69382;DHT22;56560;50.692;12.844;2022-10-31T11:56:55;25.90;43.30
69382;DHT22;56560;50.692;12.844;2022-10-31T11:59:29;26.10;43.20
69382;DHT22;56560;50.692;12.844;2022-10-31T12:01:57;26.30;41.70
69382;DHT22;56560;50.692;12.844;2022-10-31T12:04:32;26.00;42.30
69382;DHT22;56560;50.692;12.844;2022-10-31T12:06:59;25.60;42.20
69382;DHT22;56560;50.692;12.844;2022-10-31T12:09:30;25.70;43.40
69382;DHT22;56560;50.692;12.844;2022-10-31T12:17:35;26.50;41.10
69382;DHT22;56560;50.692;12.844;2022-10-31T12:23:05;26.80;40.80
69382;DHT22;56560;50.692;12.844;2022-10-31T12:26:41;27.10;40.90
69382;DHT22;56560;50.692;12.844;2022-10-31T12:34:43;27.20;40.20
69382;DHT22;56560;50.692;12.844;2022-10-31T12:37:13;26.70;40.80
69382;DHT22;56560;50.692;12.844;2022-10-31T12:39:44;26.50;41.80
69382;DHT22;56560;50.692;12.844;2022-10-31T12:45:11;26.70;41.30
69382;DHT22;56560;50.692;12.844;2022-10-31T12:48:05;26.70;41.50
69382;DHT22;56560;50.692;12.844;2022-10-31T12:58:43;27.20;40.80
69382;DHT22;56560;50.692;12.844;2022-10-31T13:01:28;27.20;41.10
69382;DHT22;56560;50.692;12.844;2022-10-31T13:04:16;27.30;41.30
69382;DHT22;56560;50.692;12.844;2022-10-31T13:06:49;27.40;41.00
69382;DHT22;56560;50.692;12.844;2022-10-31T13:09:19;27.80;40.20
69382;DHT22;56560;50.692;12.844;2022-10-31T13:11:50;28.00;40.00
69382;DHT22;56560;50.692;12.844;2022-10-31T13:14:29;28.30;39.70
69382;DHT22;56560;50.692;12.844;2022-10-31T13:16:59;28.60;39.20
69382;DHT22;56560;50.692;12.844;2022-10-31T13:19:30;28.90;38.90
69382;DHT22;56560;50.692;12.844;2022-10-31T13:25:02;28.60;39.10
69382;DHT22;56560;50.692;12.844;2022-10-31T13:27:51;28.60;39.30
69382;DHT22;56560;50.692;12.844;2022-10-31T13:30:20;28.80;38.90
69382;DHT22;56560;50.692;12.844;2022-10-31T13:35:41;28.10;39.90
69382;DHT22;56560;50.692;12.844;2022-10-31T13:41:05;27.70;40.70
69382;DHT22;56560;50.692;12.844;2022-10-31T13:48:58;27.00;42.00
69382;DHT22;56560;50.692;12.844;2022-10-31T13:51:26;26.60;42.00
69382;DHT22;56560;50.692;12.844;2022-10-31T13:53:57;25.90;43.20
69382;DHT22;56560;50.692;12.844;2022-10-31T13:56:29;25.50;44.10
69382;DHT22;56560;50.692;12.844;2022-10-31T13:59:03;25.10;44.60
69382;DHT22;56560;50.692;12.844;2022-10-31T14:01:31;24.60;45.30
69382;DHT22;56560;50.692;12.844;2022-10-31T14:04:18;24.10;46.10
69382;DHT22;56560;50.692;12.844;2022-10-31T14:12:08;22.70;49.70
69382;DHT22;56560;50.692;12.844;2022-10-31T14:14:43;22.30;50.80
69382;DHT22;56560;50.692;12.844;2022-10-31T14:17:23;21.80;51.50
69382;DHT22;56560;50.692;12.844;2022-10-31T14:20:21;21.50;52.90
69382;DHT22;56560;50.692;12.844;2022-10-31T14:22:46;21.20;53.80
69382;DHT22;56560;50.692;12.844;2022-10-31T14:25:43;21.00;54.30
69382;DHT22;56560;50.692;12.844;2022-10-31T14:28:33;20.70;55.90
69382;DHT22;56560;50.692;12.844;2022-10-31T14:31:00;20.50;56.50
69382;DHT22;56560;50.692;12.844;2022-10-31T14:33:28;20.30;57.50
69382;DHT22;56560;50.692;12.844;2022-10-31T14:36:06;20.10;58.10
69382;DHT22;56560;50.692;12.844;2022-10-31T14:41:58;19.70;60.40
69382;DHT22;56560;50.692;12.844;2022-10-31T14:50:52;18.90;63.00
69382;DHT22;56560;50.692;12.844;2022-10-31T14:53:30;18.70;63.20
69382;DHT22;56560;50.692;12.844;2022-10-31T14:55:58;18.50;64.40
69382;DHT22;56560;50.692;12.844;2022-10-31T15:00:59;18.10;65.20
69382;DHT22;56560;50.692;12.844;2022-10-31T15:03:38;17.90;65.50
69382;DHT22;56560;50.692;12.844;2022-10-31T15:06:11;17.80;66.60
69382;DHT22;56560;50.692;12.844;2022-10-31T15:11:23;17.50;66.90
69382;DHT22;56560;50.692;12.844;2022-10-31T15:13:51;17.40;68.10
69382;DHT22;56560;50.692;12.844;2022-10-31T15:16:33;17.20;68.10
69382;DHT22;56560;50.692;12.844;2022-10-31T15:19:03;17.00;68.80
69382;DHT22;56560;50.692;12.844;2022-10-31T15:21:30;16.80;69.20
69382;DHT22;56560;50.692;12.844;2022-10-31T15:24:01;16.70;70.10
69382;DHT22;56560;50.692;12.844;2022-10-31T15:26:38;16.50;71.00
69382;DHT22;56560;50.692;12.844;2022-10-31T15:29:12;16.30;71.70
69382;DHT22;56560;50.692;12.844;2022-10-31T15:31:38;16.10;71.70
69382;DHT22;56560;50.692;12.844;2022-10-31T15:36:50;15.70;73.80
69382;DHT22;56560;50.692;12.844;2022-10-31T15:39:16;15.50;74.20
69382;DHT22;56560;50.692;12.844;2022-10-31T15:41:53;15.30;74.70
69382;DHT22;56560;50.692;12.844;2022-10-31T15:44:30;15.20;75.80
69382;DHT22;56560;50.692;12.844;2022-10-31T15:47:02;15.10;75.70
69382;DHT22;56560;50.692;12.844;2022-10-31T15:49:35;15.00;75.90
69382;DHT22;56560;50.692;12.844;2022-10-31T15:52:33;14.80;76.40
69382;DHT22;56560;50.692;12.844;2022-10-31T15:55:21;14.70;77.10
69382;DHT22;56560;50.692;12.844;2022-10-31T15:57:51;14.50;77.50
69382;DHT22;56560;50.692;12.844;2022-10-31T16:00:32;14.40;78.20
69382;DHT22;56560;50.692;12.844;2022-10-31T16:03:25;14.30;78.70
69382;DHT22;56560;50.692;12.844;2022-10-31T16:05:57;14.20;78.80
69382;DHT22;56560;50.692;12.844;2022-10-31T16:10:56;14.00;79.40
69382;DHT22;56560;50.692;12.844;2022-10-31T16:16:28;13.80;80.20
69382;DHT22;56560;50.692;12.844;2022-10-31T16:18:55;13.80;80.00
69382;DHT22;56560;50.692;12.844;2022-10-31T16:21:27;13.70;79.90
69382;DHT22;56560;50.692;12.844;2022-10-31T16:24:04;13.60;80.30
69382;DHT22;56560;50.692;12.844;2022-10-31T16:26:36;13.50;81.10
69382;DHT22;56560;50.692;12.844;2022-10-31T16:29:02;13.40;81.20
69382;DHT22;56560;50.692;12.844;2022-10-31T16:31:36;13.40;80.60
69382;DHT22;56560;50.692;12.844;2022-10-31T16:34:15;13.30;81.20
69382;DHT22;56560;50.692;12.844;2022-10-31T16:36:42;13.30;81.80
69382;DHT22;56560;50.692;12.844;2022-10-31T16:39:08;13.20;81.80
69382;DHT22;56560;50.692;12.844;2022-10-31T16:41:40;13.20;81.90
69382;DHT22;56560;50.692;12.844;2022-10-31T16:44:21;13.10;81.30
69382;DHT22;56560;50.692;12.844;2022-10-31T16:46:47;13.00;81.80
69382;DHT22;56560;50.692;12.844;2022-10-31T16:49:13;12.90;82.00
69382;DHT22;56560;50.692;12.844;2022-10-31T16:51:41;12.80;82.00
69382;DHT22;56560;50.692;12.844;2022-10-31T16:54:07;12.70;82.40
69382;DHT22;56560;50.692;12.844;2022-10-31T16:56:36;12.70;82.60
69382;DHT22;56560;50.692;12.844;2022-10-31T16:59:04;12.60;82.60
69382;DHT22;56560;50.692;12.844;2022-10-31T17:01:31;12.50;83.60
69382;DHT22;56560;50.692;12.844;2022-10-31T17:03:57;12.50;83.20
69382;DHT22;56560;50.692;12.844;2022-10-31T17:06:22;12.40;82.90
69382;DHT22;56560;50.692;12.844;2022-10-31T17:08:48;12.30;82.80
69382;DHT22;56560;50.692;12.844;2022-10-31T17:11:18;12.30;83.40
69382;DHT22;56560;50.692;12.844;2022-10-31T17:13:44;12.30;84.20
69382;DHT22;56560;50.692;12.844;2022-10-31T17:16:12;12.20;83.30
69382;DHT22;56560;50.692;12.844;2022-10-31T17:18:38;12.20;83.20
69382;DHT22;56560;50.692;12.844;2022-10-31T17:21:04;12.10;83.50
69382;DHT22;56560;50.692;12.844;2022-10-31T17:23:31;12.00;84.30
69382;DHT22;56560;50.692;12.844;2022-10-31T17:25:58;11.90;84.50
69382;DHT22;56560;50.692;12.844;2022-10-31T17:28:25;11.90;84.60
69382;DHT22;56560;50.692;12.844;2022-10-31T17:30:53;11.90;84.30
69382;DHT22;56560;50.692;12.844;2022-10-31T17:33:19;11.80;85.30
69382;DHT22;56560;50.692;12.844;2022-10-31T17:35:46;11.80;85.30
69382;DHT22;56560;50.692;12.844;2022-10-31T17:38:12;11.80;85.40
69382;DHT22;56560;50.692;12.844;2022-10-31T17:40:39;11.80;85.70
69382;DHT22;56560;50.692;12.844;2022-10-31T17:43:07;11.80;86.60
69382;DHT22;56560;50.692;12.844;2022-10-31T17:45:33;11.80;86.40
69382;DHT22;56560;50.692;12.844;2022-10-31T17:47:59;11.80;85.80
69382;DHT22;56560;50.692;12.844;2022-10-31T17:50:25;11.80;85.80
69382;DHT22;56560;50.692;12.844;2022-10-31T17:52:51;11.70;86.50
69382;DHT22;56560;50.692;12.844;2022-10-31T17:55:17;11.70;86.80
69382;DHT22;56560;50.692;12.844;2022-10-31T17:57:43;11.60;85.00
69382;DHT22;56560;50.692;12.844;2022-10-31T18:00:15;11.50;84.80
69382;DHT22;56560;50.692;12.844;2022-10-31T18:02:41;11.50;84.80
69382;DHT22;56560;50.692;12.844;2022-10-31T18:05:07;11.40;84.70
69382;DHT22;56560;50.692;12.844;2022-10-31T18:07:33;11.40;85.00